createdAt,value
2023-03-21T00:00:42.057Z,39.20
2023-03-21T00:01:56.676Z,37.30
2023-03-21T00:02:59.528Z,37.30
2023-03-21T00:04:03.296Z,38.20
2023-03-21T00:05:15.473Z,35.40
2023-03-21T00:06:19.132Z,36.70
2023-03-21T00:07:22.239Z,38.90
2023-03-21T00:08:26.227Z,38.90
2023-03-21T00:09:29.060Z,37.40
2023-03-21T00:10:40.282Z,36.90
2023-03-21T00:11:48.304Z,35.70
2023-03-21T00:12:55.496Z,37.10
2023-03-21T00:14:02.458Z,37.20
2023-03-21T00:15:10.104Z,36.30
2023-03-21T00:16:17.831Z,39.10
2023-03-21T00:17:24.632Z,41.30
2023-03-21T00:18:27.348Z,42.70
2023-03-21T00:19:30.519Z,44.40
2023-03-21T00:20:37.889Z,44.50
2023-03-21T00:21:59.561Z,44.90
2023-03-21T00:23:04.979Z,42.70
2023-03-21T00:24:08.090Z,40.40
2023-03-21T00:25:11.087Z,40.40
2023-03-21T00:26:15.524Z,40.40
2023-03-21T00:27:42.900Z,44.40
2023-03-21T00:28:43.751Z,38.90
2023-03-21T00:29:49.118Z,38.60
2023-03-21T00:31:00.748Z,40.20
2023-03-21T00:32:03.603Z,39.60
2023-03-21T00:33:21.726Z,41.30
2023-03-21T00:34:36.470Z,39.20
2023-03-21T00:35:58.763Z,39.10
2023-03-21T00:37:07.327Z,38.50
2023-03-21T00:38:11.229Z,39.40
2023-03-21T00:39:14.251Z,39.30
2023-03-21T00:40:26.593Z,40.30
2023-03-21T00:41:42.004Z,41.30
2023-03-21T00:42:45.840Z,42.10
2023-03-21T00:43:48.606Z,46.90
2023-03-21T00:44:51.921Z,48.80
2023-03-21T00:45:54.727Z,50.10
2023-03-21T00:47:06.997Z,49.10
2023-03-21T00:48:10.884Z,48.20
2023-03-21T00:49:13.715Z,47.30
2023-03-21T00:50:18.153Z,55.20
2023-03-21T00:51:26.346Z,55.80
2023-03-21T00:52:40.231Z,55.70
2023-03-21T00:53:43.848Z,67.50
2023-03-21T00:54:46.579Z,63.40
2023-03-21T00:55:50.003Z,63.50
2023-03-21T00:56:53.178Z,64.70
2023-03-21T00:58:01.844Z,63.30
2023-03-21T00:59:05.336Z,63.20
2023-03-21T01:00:10.769Z,71.50
2023-03-21T01:01:13.715Z,72.80
2023-03-21T01:02:23.316Z,66.30
2023-03-21T01:03:26.744Z,59.80
2023-03-21T01:04:29.644Z,58.50
2023-03-21T01:05:54.448Z,66.50
2023-03-21T01:06:57.390Z,58.80
2023-03-21T01:08:00.392Z,55.70
2023-03-21T01:09:03.870Z,55.70
2023-03-21T01:10:07.293Z,50.00
2023-03-21T01:11:14.438Z,55.30
2023-03-21T01:12:17.261Z,47.20
2023-03-21T01:13:22.745Z,40.90
2023-03-21T01:14:25.950Z,42.20
2023-03-21T01:15:29.743Z,41.20
2023-03-21T01:16:32.718Z,41.60
2023-03-21T01:17:35.750Z,39.70
2023-03-21T01:18:40.845Z,39.90
2023-03-21T01:19:51.721Z,36.20
2023-03-21T01:20:58.021Z,38.20
2023-03-21T01:22:01.068Z,35.20
2023-03-21T01:23:03.802Z,37.40
2023-03-21T01:24:07.232Z,36.40
2023-03-21T01:25:21.874Z,36.30
2023-03-21T01:26:25.832Z,35.30
2023-03-21T01:27:28.684Z,34.70
2023-03-21T01:28:32.107Z,36.60
2023-03-21T01:29:34.927Z,42.90
2023-03-21T01:30:41.929Z,50.00
2023-03-21T01:31:45.072Z,51.20
2023-03-21T01:32:48.065Z,56.50
2023-03-21T01:33:51.500Z,59.20
2023-03-21T01:34:54.275Z,60.20
2023-03-21T01:36:10.350Z,58.10
2023-03-21T01:37:18.004Z,54.40
2023-03-21T01:38:23.863Z,48.50
2023-03-21T01:39:26.596Z,40.30
2023-03-21T01:40:30.708Z,41.10
2023-03-21T01:41:46.792Z,37.70
2023-03-21T01:42:53.936Z,36.20
2023-03-21T01:43:57.831Z,38.70
2023-03-21T01:45:46.211Z,37.80
2023-03-21T01:47:07.316Z,39.10
2023-03-21T01:48:23.296Z,50.70
2023-03-21T01:49:36.024Z,69.70
2023-03-21T01:51:05.660Z,69.00
2023-03-21T01:52:29.761Z,68.80
2023-03-21T01:53:40.582Z,61.10
2023-03-21T01:54:46.957Z,60.20
2023-03-21T01:55:53.176Z,58.20
2023-03-21T01:57:22.614Z,51.30
2023-03-21T01:58:30.226Z,48.30
2023-03-21T01:59:43.328Z,46.50
2023-03-21T02:01:02.894Z,39.20
2023-03-21T02:02:17.955Z,40.50
2023-03-21T02:03:38.456Z,37.40
2023-03-21T02:05:03.846Z,35.40
2023-03-21T02:06:13.704Z,34.60
2023-03-21T02:07:25.704Z,33.30
2023-03-21T02:08:39.318Z,32.80
2023-03-21T02:09:50.252Z,33.80
2023-03-21T02:10:56.903Z,32.80
2023-03-21T02:12:09.270Z,33.30
2023-03-21T02:13:12.302Z,34.10
2023-03-21T02:14:28.338Z,35.70
2023-03-21T02:15:38.317Z,38.00
2023-03-21T02:17:17.660Z,39.90
2023-03-21T02:18:26.743Z,36.80
2023-03-21T02:19:51.021Z,38.70
2023-03-21T02:21:11.418Z,34.20
2023-03-21T02:22:49.504Z,34.20
2023-03-21T02:24:23.683Z,33.10
2023-03-21T02:25:29.119Z,32.90
2023-03-21T02:27:04.833Z,32.70
2023-03-21T02:29:30.547Z,30.60
2023-03-21T02:31:07.531Z,33.70
2023-03-21T02:32:36.564Z,32.90
2023-03-21T02:33:58.732Z,34.70
2023-03-21T02:35:14.168Z,34.50
2023-03-21T02:36:41.704Z,36.20
2023-03-21T02:38:00.747Z,35.40
2023-03-21T02:39:15.824Z,36.50
2023-03-21T02:40:27.745Z,37.70
2023-03-21T02:41:49.023Z,38.00
2023-03-21T02:43:23.060Z,38.90
2023-03-21T02:44:41.316Z,37.10
2023-03-21T02:45:52.311Z,40.10
2023-03-21T02:47:06.354Z,45.50
2023-03-21T02:48:29.142Z,46.40
2023-03-21T02:49:44.945Z,48.80
2023-03-21T02:50:53.173Z,51.20
2023-03-21T02:52:05.293Z,60.20
2023-03-21T02:53:21.726Z,72.20
2023-03-21T02:54:41.830Z,70.00
2023-03-21T02:55:52.974Z,71.30
2023-03-21T02:56:59.327Z,85.50
2023-03-21T02:58:12.358Z,89.30
2023-03-21T02:59:21.263Z,83.30
2023-03-21T03:00:27.720Z,76.40
2023-03-21T03:01:30.641Z,76.00
2023-03-21T03:02:33.849Z,73.20
2023-03-21T03:03:39.498Z,73.40
2023-03-21T03:04:42.411Z,69.40
2023-03-21T03:05:50.524Z,63.90
2023-03-21T03:07:01.226Z,64.20
2023-03-21T03:08:10.752Z,69.30
2023-03-21T03:09:19.437Z,61.30
2023-03-21T03:10:26.598Z,54.60
2023-03-21T03:11:38.313Z,53.60
2023-03-21T03:13:23.728Z,44.00
2023-03-21T03:14:56.412Z,39.70
2023-03-21T03:16:28.625Z,38.10
2023-03-21T03:18:10.350Z,36.80
2023-03-21T03:19:26.036Z,35.40
2023-03-21T03:20:59.224Z,36.10
2023-03-21T03:22:10.755Z,35.90
2023-03-21T03:23:24.333Z,36.80
2023-03-21T03:25:18.318Z,36.30
2023-03-21T03:26:38.527Z,35.70
2023-03-21T03:27:44.911Z,36.70
2023-03-21T03:28:53.909Z,37.30
2023-03-21T03:30:01.154Z,36.10
2023-03-21T03:33:56.732Z,31.60
2023-03-21T03:35:00.499Z,33.30
2023-03-21T03:36:12.803Z,32.90
2023-03-21T03:37:26.371Z,33.20
2023-03-21T03:38:30.125Z,33.30
2023-03-21T03:39:41.486Z,34.10
2023-03-21T03:40:48.930Z,33.00
2023-03-21T03:42:27.180Z,31.60
2023-03-21T03:43:42.149Z,33.90
2023-03-21T03:44:45.773Z,34.30
2023-03-21T03:45:54.754Z,33.30
2023-03-21T03:47:03.832Z,34.80
2023-03-21T03:48:17.507Z,33.30
2023-03-21T03:49:24.029Z,33.40
2023-03-21T03:50:32.160Z,32.40
2023-03-21T03:51:54.566Z,35.40
2023-03-21T03:53:18.642Z,32.60
2023-03-21T03:54:28.552Z,33.80
2023-03-21T03:55:34.620Z,35.00
2023-03-21T03:56:47.001Z,33.80
2023-03-21T03:57:50.001Z,35.40
2023-03-21T03:58:53.117Z,33.40
2023-03-21T03:59:59.763Z,32.10
2023-03-21T04:01:19.682Z,31.00
2023-03-21T04:02:22.520Z,32.30
2023-03-21T04:03:25.798Z,30.80
2023-03-21T04:04:29.771Z,30.80
2023-03-21T04:05:33.427Z,30.70
2023-03-21T04:06:36.183Z,30.80
2023-03-21T04:07:41.409Z,29.80
2023-03-21T04:08:44.715Z,28.80
2023-03-21T04:09:47.916Z,30.20
2023-03-21T04:10:53.996Z,30.10
2023-03-21T04:11:57.748Z,30.70
2023-03-21T04:13:00.714Z,31.00
2023-03-21T04:14:30.642Z,39.40
2023-03-21T04:15:40.522Z,42.90
2023-03-21T04:16:47.653Z,47.70
2023-03-21T04:17:50.730Z,45.70
2023-03-21T04:18:53.953Z,46.50
2023-03-21T04:20:05.455Z,49.10
2023-03-21T04:21:13.267Z,49.70
2023-03-21T04:22:17.169Z,49.30
2023-03-21T04:23:20.215Z,50.30
2023-03-21T04:24:23.131Z,45.70
2023-03-21T04:25:33.907Z,45.70
2023-03-21T04:26:38.222Z,47.50
2023-03-21T04:28:10.526Z,46.90
2023-03-21T04:29:35.944Z,49.10
2023-03-21T04:31:03.543Z,50.50
2023-03-21T04:32:19.907Z,50.00
2023-03-21T04:33:29.056Z,53.10
2023-03-21T04:34:32.435Z,46.80
2023-03-21T04:35:37.664Z,45.20
2023-03-21T04:36:47.340Z,45.10
2023-03-21T04:38:54.880Z,41.60
2023-03-21T04:39:57.652Z,43.30
2023-03-21T04:41:01.297Z,45.30
2023-03-21T04:42:05.785Z,41.20
2023-03-21T04:43:08.835Z,39.50
2023-03-21T04:44:16.646Z,38.00
2023-03-21T04:45:19.668Z,35.00
2023-03-21T04:46:23.697Z,33.80
2023-03-21T04:47:27.457Z,33.60
2023-03-21T04:48:31.284Z,34.60
2023-03-21T04:49:35.458Z,34.90
2023-03-21T04:50:39.215Z,33.80
2023-03-21T04:51:44.042Z,33.10
2023-03-21T04:52:47.563Z,32.40
2023-03-21T04:53:52.623Z,32.80
2023-03-21T04:54:55.654Z,32.50
2023-03-21T04:55:59.049Z,31.30
2023-03-21T04:57:01.829Z,32.40
2023-03-21T04:58:05.252Z,33.50
2023-03-21T04:59:14.077Z,32.30
2023-03-21T05:00:17.260Z,32.40
2023-03-21T05:01:20.909Z,31.70
2023-03-21T05:02:24.041Z,31.80
2023-03-21T05:03:28.837Z,33.60
2023-03-21T05:04:31.931Z,34.10
2023-03-21T05:05:38.333Z,35.00
2023-03-21T05:06:44.737Z,32.90
2023-03-21T05:07:47.582Z,35.00
2023-03-21T05:08:50.439Z,35.10
2023-03-21T05:09:53.226Z,36.90
2023-03-21T05:10:56.001Z,40.00
2023-03-21T05:12:02.030Z,41.10
2023-03-21T05:13:06.790Z,40.00
2023-03-21T05:14:14.231Z,40.70
2023-03-21T05:15:17.140Z,38.60
2023-03-21T05:16:20.007Z,37.70
2023-03-21T05:17:28.449Z,36.30
2023-03-21T05:18:34.940Z,36.80
2023-03-21T05:19:42.681Z,35.80
2023-03-21T05:20:47.187Z,36.30
2023-03-21T05:21:50.555Z,35.30
2023-03-21T05:22:56.482Z,34.60
2023-03-21T05:24:03.640Z,35.20
2023-03-21T05:25:08.996Z,34.10
2023-03-21T05:26:30.390Z,34.10
2023-03-21T05:27:45.370Z,34.50
2023-03-21T05:28:50.241Z,34.30
2023-03-21T05:29:53.018Z,37.70
2023-03-21T05:30:56.024Z,36.80
2023-03-21T05:32:00.698Z,31.70
2023-03-21T05:33:04.004Z,31.40
2023-03-21T05:34:07.101Z,32.10
2023-03-21T05:35:10.833Z,30.90
2023-03-21T05:36:14.849Z,31.10
2023-03-21T05:37:17.671Z,34.30
2023-03-21T05:38:23.462Z,37.00
2023-03-21T05:39:27.365Z,43.60
2023-03-21T05:40:39.014Z,46.30
2023-03-21T05:41:42.502Z,55.20
2023-03-21T05:42:47.120Z,56.40
2023-03-21T05:44:00.468Z,60.30
2023-03-21T05:45:04.109Z,58.90
2023-03-21T05:46:08.423Z,58.80
2023-03-21T05:47:16.219Z,60.50
2023-03-21T05:49:36.556Z,57.40
2023-03-21T05:50:39.491Z,53.10
2023-03-21T05:51:47.310Z,49.70
2023-03-21T05:52:50.218Z,47.40
2023-03-21T05:53:53.116Z,47.30
2023-03-21T05:54:58.326Z,49.70
2023-03-21T05:56:02.708Z,46.30
2023-03-21T05:57:28.879Z,50.80
2023-03-21T05:58:34.523Z,52.10
2023-03-21T05:59:37.432Z,55.30
2023-03-21T06:00:40.701Z,56.20
2023-03-21T06:01:57.323Z,57.80
2023-03-21T06:03:00.726Z,54.50
2023-03-21T06:04:17.818Z,50.80
2023-03-21T06:05:20.714Z,47.10
2023-03-21T06:06:45.286Z,48.20
2023-03-21T06:07:49.387Z,50.40
2023-03-21T06:08:52.268Z,47.50
2023-03-21T06:09:55.261Z,48.00
2023-03-21T06:10:58.068Z,45.80
2023-03-21T06:12:01.231Z,47.70
2023-03-21T06:13:08.345Z,45.60
2023-03-21T06:14:11.142Z,46.40
2023-03-21T06:15:14.738Z,49.40
2023-03-21T06:16:29.036Z,48.10
2023-03-21T06:17:34.947Z,46.40
2023-03-21T06:18:40.280Z,48.20
2023-03-21T06:19:54.884Z,48.20
2023-03-21T06:21:06.826Z,48.10
2023-03-21T06:22:09.662Z,49.40
2023-03-21T06:23:14.351Z,48.10
2023-03-21T06:24:17.893Z,49.00
2023-03-21T06:25:21.463Z,50.30
2023-03-21T06:26:24.340Z,47.60
2023-03-21T06:27:27.680Z,49.60
2023-03-21T06:28:31.805Z,46.20
2023-03-21T06:29:34.941Z,48.40
2023-03-21T06:30:37.934Z,50.70
2023-03-21T06:32:01.314Z,48.90
2023-03-21T06:33:04.269Z,48.60
2023-03-21T06:34:07.198Z,47.20
2023-03-21T06:35:10.254Z,48.10
2023-03-21T06:36:13.425Z,48.30
2023-03-21T06:37:16.359Z,49.40
2023-03-21T06:38:19.450Z,46.30
2023-03-21T06:39:23.440Z,49.60
2023-03-21T06:40:26.370Z,47.50
2023-03-21T06:41:29.982Z,47.10
2023-03-21T06:42:36.472Z,46.10
2023-03-21T06:43:45.315Z,46.20
2023-03-21T06:44:48.447Z,42.80
2023-03-21T06:45:52.002Z,45.20
2023-03-21T06:46:55.751Z,44.30
2023-03-21T06:47:58.546Z,41.80
2023-03-21T06:49:18.073Z,47.70
2023-03-21T06:50:21.119Z,42.50
2023-03-21T06:51:24.000Z,42.70
2023-03-21T06:52:42.621Z,43.70
2023-03-21T06:53:45.856Z,41.30
2023-03-21T06:55:02.345Z,40.30
2023-03-21T06:56:05.870Z,39.70
2023-03-21T06:57:08.966Z,40.50
2023-03-21T06:58:11.793Z,42.80
2023-03-21T06:59:14.715Z,39.70
2023-03-21T07:00:30.802Z,40.30
2023-03-21T07:01:34.884Z,38.80
2023-03-21T07:02:42.387Z,38.20
2023-03-21T07:03:49.588Z,37.00
2023-03-21T07:04:55.267Z,38.70
2023-03-21T07:06:07.036Z,39.50
2023-03-21T07:07:10.405Z,39.80
2023-03-21T07:08:14.308Z,38.80
2023-03-21T07:09:18.301Z,38.10
2023-03-21T07:10:21.588Z,39.30
2023-03-21T07:11:42.658Z,35.60
2023-03-21T07:12:45.429Z,34.70
2023-03-21T07:14:00.678Z,34.90
2023-03-21T07:15:04.661Z,34.70
2023-03-21T07:16:09.099Z,35.10
2023-03-21T07:17:11.945Z,34.90
2023-03-21T07:18:14.750Z,34.60
2023-03-21T07:19:18.885Z,35.10
2023-03-21T07:20:21.654Z,35.80
2023-03-21T07:21:24.966Z,32.90
2023-03-21T07:22:27.802Z,33.80
2023-03-21T07:23:30.566Z,34.30
2023-03-21T07:24:33.448Z,33.70
2023-03-21T07:25:36.522Z,35.20
2023-03-21T07:26:39.535Z,33.60
2023-03-21T07:27:42.345Z,32.90
2023-03-21T07:28:45.877Z,34.10
2023-03-21T07:29:50.466Z,33.60
2023-03-21T07:30:56.331Z,33.70
2023-03-21T07:31:59.197Z,34.90
2023-03-21T07:33:02.158Z,33.10
2023-03-21T07:34:05.070Z,34.80
2023-03-21T07:35:11.964Z,32.80
2023-03-21T07:36:16.305Z,32.20
2023-03-21T07:37:19.202Z,36.20
2023-03-21T07:38:22.062Z,31.80
2023-03-21T07:39:26.110Z,32.00
2023-03-21T07:40:29.469Z,33.30
2023-03-21T07:41:32.542Z,32.20
2023-03-21T07:42:49.182Z,32.40
2023-03-21T07:43:54.670Z,32.60
2023-03-21T07:44:57.637Z,32.90
2023-03-21T07:46:00.869Z,32.20
2023-03-21T07:47:04.888Z,33.20
2023-03-21T07:48:08.774Z,32.90
2023-03-21T07:49:11.516Z,30.20
2023-03-21T07:50:14.756Z,31.20
2023-03-21T07:51:17.501Z,27.80
2023-03-21T07:52:20.344Z,28.70
2023-03-21T07:53:23.674Z,29.50
2023-03-21T07:54:28.620Z,30.50
2023-03-21T07:55:35.018Z,27.70
2023-03-21T07:56:38.027Z,30.40
2023-03-21T07:57:41.077Z,29.20
2023-03-21T07:58:43.874Z,31.00
2023-03-21T07:59:46.807Z,30.60
2023-03-21T08:00:50.065Z,30.50
2023-03-21T08:01:53.201Z,30.30
2023-03-21T08:02:59.037Z,32.70
2023-03-21T08:04:01.992Z,31.30
2023-03-21T08:05:05.122Z,34.30
2023-03-21T08:06:08.431Z,30.30
2023-03-21T08:07:11.843Z,28.40
2023-03-21T08:08:14.879Z,27.80
2023-03-21T08:09:17.748Z,29.90
2023-03-21T08:10:20.783Z,27.10
2023-03-21T08:11:24.703Z,26.60
2023-03-21T08:12:27.620Z,28.40
2023-03-21T08:13:30.389Z,25.10
2023-03-21T08:14:33.334Z,26.60
2023-03-21T08:15:37.612Z,26.40
2023-03-21T08:16:40.612Z,26.70
2023-03-21T08:17:45.626Z,26.40
2023-03-21T08:18:48.391Z,25.10
2023-03-21T08:19:51.442Z,22.90
2023-03-21T08:20:57.697Z,24.10
2023-03-21T08:22:01.238Z,23.20
2023-03-21T08:23:04.433Z,23.40
2023-03-21T08:24:07.261Z,21.20
2023-03-21T08:25:13.900Z,23.00
2023-03-21T08:26:18.547Z,23.40
2023-03-21T08:27:21.398Z,24.10
2023-03-21T08:28:24.717Z,22.20
2023-03-21T08:29:27.877Z,25.50
2023-03-21T08:30:30.911Z,27.00
2023-03-21T08:31:33.714Z,27.90
2023-03-21T08:32:38.688Z,23.60
2023-03-21T08:33:41.483Z,25.00
2023-03-21T08:34:44.274Z,25.40
2023-03-21T08:35:47.364Z,23.80
2023-03-21T08:36:50.229Z,22.90
2023-03-21T08:37:53.575Z,22.90
2023-03-21T08:39:04.808Z,25.00
2023-03-21T08:40:14.354Z,24.40
2023-03-21T08:41:17.130Z,27.30
2023-03-21T08:42:21.481Z,26.40
2023-03-21T08:43:24.233Z,26.00
2023-03-21T08:44:27.071Z,25.30
2023-03-21T08:45:30.582Z,23.90
2023-03-21T08:46:33.814Z,24.90
2023-03-21T08:47:36.838Z,22.30
2023-03-21T08:48:39.760Z,23.70
2023-03-21T08:49:45.685Z,22.90
2023-03-21T08:50:48.661Z,25.50
2023-03-21T08:51:55.830Z,25.10
2023-03-21T08:52:58.672Z,23.10
2023-03-21T08:54:01.620Z,22.20
2023-03-21T08:55:05.525Z,23.80
2023-03-21T08:56:08.758Z,21.10
2023-03-21T08:57:11.530Z,22.70
2023-03-21T08:58:14.282Z,24.90
2023-03-21T08:59:17.230Z,19.30
2023-03-21T09:00:22.011Z,21.60
2023-03-21T09:01:24.817Z,22.10
2023-03-21T09:02:27.761Z,21.10
2023-03-21T09:03:30.596Z,24.10
2023-03-21T09:04:33.824Z,22.90
2023-03-21T09:05:36.977Z,22.00
2023-03-21T09:06:47.021Z,22.00
2023-03-21T09:07:49.892Z,24.50
2023-03-21T09:08:53.504Z,22.40
2023-03-21T09:10:15.148Z,23.80
2023-03-21T09:11:19.624Z,23.00
2023-03-21T09:12:22.364Z,24.10
2023-03-21T09:13:25.225Z,24.50
2023-03-21T09:14:28.982Z,22.10
2023-03-21T09:15:33.248Z,21.00
2023-03-21T09:16:36.064Z,22.70
2023-03-21T09:17:43.911Z,22.20
2023-03-21T09:18:50.612Z,22.00
2023-03-21T09:19:53.401Z,21.40
2023-03-21T09:20:56.569Z,19.40
2023-03-21T09:21:59.754Z,20.00
2023-03-21T09:23:03.239Z,17.90
2023-03-21T09:24:06.858Z,17.90
2023-03-21T09:25:11.412Z,16.80
2023-03-21T09:26:14.625Z,17.20
2023-03-21T09:27:25.480Z,17.20
2023-03-21T09:28:28.463Z,17.20
2023-03-21T09:29:32.563Z,19.30
2023-03-21T09:30:36.818Z,18.20
2023-03-21T09:31:40.288Z,19.50
2023-03-21T09:32:47.413Z,18.90
2023-03-21T09:33:51.618Z,18.80
2023-03-21T09:34:55.798Z,20.60
2023-03-21T09:36:00.529Z,19.50
2023-03-21T09:37:03.513Z,19.00
2023-03-21T09:38:06.384Z,18.80
2023-03-21T09:39:09.209Z,17.20
2023-03-21T09:40:21.367Z,16.90
2023-03-21T09:41:44.175Z,17.30
2023-03-21T09:43:35.581Z,17.10
2023-03-21T09:44:59.022Z,18.40
2023-03-21T09:46:13.932Z,17.00
2023-03-21T09:47:29.401Z,16.90
2023-03-21T09:48:50.633Z,16.10
2023-03-21T09:50:14.129Z,16.30
2023-03-21T09:51:19.492Z,17.70
2023-03-21T09:52:32.714Z,17.00
2023-03-21T09:53:39.867Z,17.10
2023-03-21T09:54:45.778Z,17.90
2023-03-21T09:55:49.332Z,17.00
2023-03-21T09:56:56.378Z,16.30
2023-03-21T09:58:24.551Z,16.20
2023-03-21T09:59:40.181Z,18.60
2023-03-21T10:00:49.467Z,19.20
2023-03-21T10:01:52.498Z,19.70
2023-03-21T10:02:59.942Z,18.00
2023-03-21T10:04:06.663Z,17.70
2023-03-21T10:05:17.737Z,19.50
2023-03-21T10:06:28.686Z,18.20
2023-03-21T10:07:37.792Z,17.60
2023-03-21T10:08:43.097Z,18.10
2023-03-21T10:09:47.277Z,18.40
2023-03-21T10:10:53.551Z,17.10
2023-03-21T10:12:08.373Z,18.80
2023-03-21T10:13:17.391Z,20.50
2023-03-21T10:14:29.843Z,21.80
2023-03-21T10:15:32.698Z,20.50
2023-03-21T10:16:41.482Z,21.50
2023-03-21T10:17:52.114Z,20.50
2023-03-21T10:18:56.189Z,22.80
2023-03-21T10:20:12.242Z,18.10
2023-03-21T10:21:51.282Z,16.40
2023-03-21T10:22:49.445Z,17.30
2023-03-21T10:23:54.869Z,17.20
2023-03-21T10:24:57.707Z,16.80
2023-03-21T10:26:08.037Z,16.10
2023-03-21T10:27:13.310Z,18.70
2023-03-21T10:28:25.941Z,17.30
2023-03-21T10:29:43.707Z,18.80
2023-03-21T10:30:51.344Z,20.50
2023-03-21T10:31:55.541Z,18.40
2023-03-21T10:33:05.087Z,19.40
2023-03-21T10:35:19.569Z,21.10
2023-03-21T10:36:25.881Z,19.00
2023-03-21T10:37:28.693Z,19.60
2023-03-21T10:38:32.110Z,19.10
2023-03-21T10:39:41.245Z,18.60
2023-03-21T10:40:44.722Z,17.90
2023-03-21T10:41:47.487Z,18.40
2023-03-21T10:42:50.334Z,17.90
2023-03-21T10:44:14.737Z,17.30
2023-03-21T10:45:20.038Z,17.20
2023-03-21T10:46:27.421Z,17.70
2023-03-21T10:47:34.370Z,14.10
2023-03-21T10:48:40.059Z,14.80
2023-03-21T10:50:06.237Z,16.50
2023-03-21T10:51:09.421Z,15.90
2023-03-21T10:52:15.472Z,15.10
2023-03-21T10:53:21.777Z,17.50
2023-03-21T10:54:29.685Z,16.50
2023-03-21T10:55:40.942Z,16.40
2023-03-21T10:56:52.501Z,17.40
2023-03-21T10:57:58.938Z,16.60
2023-03-21T10:59:03.014Z,17.50
2023-03-21T11:00:17.087Z,17.70
2023-03-21T11:01:30.650Z,19.10
2023-03-21T11:02:36.895Z,18.40
2023-03-21T11:03:46.875Z,16.90
2023-03-21T11:04:50.245Z,20.50
2023-03-21T11:05:57.301Z,16.70
2023-03-21T11:07:07.542Z,16.70
2023-03-21T11:08:17.513Z,14.70
2023-03-21T11:09:24.946Z,13.30
2023-03-21T11:10:38.158Z,13.40
2023-03-21T11:11:50.838Z,13.20
2023-03-21T11:12:57.120Z,13.90
2023-03-21T11:14:07.074Z,11.70
2023-03-21T11:15:32.769Z,12.60
2023-03-21T11:16:41.849Z,11.70
2023-03-21T11:17:45.456Z,12.00
2023-03-21T11:18:56.672Z,10.40
2023-03-21T11:20:10.890Z,10.30
2023-03-21T11:21:14.854Z,10.70
2023-03-21T11:22:20.543Z,10.10
2023-03-21T11:23:29.939Z,10.00
2023-03-21T11:24:34.931Z,10.20
2023-03-21T11:25:41.584Z,8.50
2023-03-21T11:26:48.098Z,9.20
2023-03-21T11:27:54.916Z,8.50
2023-03-21T11:28:58.274Z,7.80
2023-03-21T11:30:05.258Z,8.10
2023-03-21T11:31:09.481Z,7.00
2023-03-21T11:32:42.484Z,7.30
2023-03-21T11:33:53.867Z,7.50
2023-03-21T11:35:21.980Z,6.70
2023-03-21T11:36:33.882Z,6.90
2023-03-21T11:37:36.663Z,6.50
2023-03-21T11:38:39.781Z,7.80
2023-03-21T11:39:45.422Z,8.90
2023-03-21T11:40:58.275Z,11.20
2023-03-21T11:42:01.194Z,13.00
2023-03-21T11:43:19.002Z,12.60
2023-03-21T11:44:43.020Z,9.50
2023-03-21T11:46:09.889Z,12.10
2023-03-21T11:47:12.864Z,15.30
2023-03-21T11:48:15.818Z,14.60
2023-03-21T11:49:18.717Z,16.00
2023-03-21T11:50:27.329Z,14.10
2023-03-21T11:51:57.960Z,11.10
2023-03-21T11:53:19.887Z,10.30
2023-03-21T11:54:41.854Z,10.90
2023-03-21T11:55:53.654Z,10.60
2023-03-21T11:57:13.750Z,10.60
2023-03-21T11:58:38.532Z,11.00
2023-03-21T12:00:10.955Z,12.20
2023-03-21T12:01:26.493Z,10.80
2023-03-21T12:02:55.814Z,10.30
2023-03-21T12:05:26.937Z,9.10
2023-03-21T12:06:49.438Z,9.50
2023-03-21T12:07:58.711Z,9.10
2023-03-21T12:09:10.486Z,7.60
2023-03-21T12:10:31.644Z,7.30
2023-03-21T12:12:03.092Z,7.30
2023-03-21T12:13:27.268Z,6.90
2023-03-21T12:14:58.349Z,6.50
2023-03-21T12:16:16.806Z,5.90
2023-03-21T12:17:54.585Z,6.40
2023-03-21T12:19:20.996Z,6.10
2023-03-21T12:20:30.298Z,5.10
2023-03-21T12:21:55.038Z,5.50
2023-03-21T12:23:28.664Z,5.50
2023-03-21T12:25:10.980Z,5.20
2023-03-21T12:26:30.680Z,5.80
2023-03-21T12:27:52.889Z,5.90
2023-03-21T12:29:14.368Z,5.40
2023-03-21T12:30:39.337Z,5.30
2023-03-21T12:31:57.017Z,5.80
2023-03-21T12:33:24.724Z,5.80
2023-03-21T12:34:45.604Z,5.00
2023-03-21T12:35:54.455Z,5.40
2023-03-21T12:37:17.577Z,5.80
2023-03-21T12:38:30.551Z,5.70
2023-03-21T12:39:40.002Z,5.60
2023-03-21T12:41:57.501Z,5.90
2023-03-21T12:43:12.315Z,5.80
2023-03-21T12:44:17.555Z,6.10
2023-03-21T12:45:45.802Z,5.70
2023-03-21T12:46:55.957Z,5.70
2023-03-21T12:49:44.146Z,6.10
2023-03-21T12:50:49.978Z,5.70
2023-03-21T12:52:01.413Z,6.20
2023-03-21T12:53:24.924Z,6.00
2023-03-21T12:54:39.004Z,6.40
2023-03-21T12:55:42.257Z,6.00
2023-03-21T12:57:07.493Z,5.10
2023-03-21T12:58:18.847Z,5.60
2023-03-21T12:59:43.449Z,4.90
2023-03-21T13:00:58.637Z,5.50
2023-03-21T13:02:16.854Z,9.70
2023-03-21T13:03:52.368Z,9.50
2023-03-21T13:05:10.381Z,11.80
2023-03-21T13:06:15.613Z,10.30
2023-03-21T13:07:22.795Z,10.40
2023-03-21T13:08:42.024Z,12.10
2023-03-21T13:09:44.826Z,9.90
2023-03-21T13:10:48.229Z,9.00
2023-03-21T13:11:54.433Z,8.20
2023-03-21T13:13:13.620Z,8.10
2023-03-21T13:14:25.141Z,8.60
2023-03-21T13:16:05.517Z,9.10
2023-03-21T13:17:23.410Z,9.30
2023-03-21T13:18:45.338Z,8.10
2023-03-21T13:19:58.712Z,8.00
2023-03-21T13:21:41.423Z,7.30
2023-03-21T13:22:44.405Z,7.50
2023-03-21T13:24:04.660Z,6.90
2023-03-21T13:25:19.329Z,6.80
2023-03-21T13:26:41.645Z,6.90
2023-03-21T13:27:51.661Z,7.30
2023-03-21T13:28:54.558Z,7.10
2023-03-21T13:30:18.309Z,6.20
2023-03-21T13:31:25.282Z,6.50
2023-03-21T13:32:35.903Z,7.60
2023-03-21T13:33:44.647Z,7.50
2023-03-21T13:34:55.543Z,7.60
2023-03-21T13:36:07.345Z,7.40
2023-03-21T13:37:18.273Z,7.20
2023-03-21T13:38:25.542Z,8.10
2023-03-21T13:39:29.739Z,8.70
2023-03-21T13:40:47.778Z,8.10
2023-03-21T13:41:51.155Z,8.50
2023-03-21T13:42:59.716Z,8.20
2023-03-21T13:44:02.393Z,8.30
2023-03-21T13:45:09.512Z,8.10
2023-03-21T13:46:15.948Z,8.30
2023-03-21T13:48:08.151Z,8.50
2023-03-21T13:49:11.148Z,9.70
2023-03-21T13:50:20.012Z,9.20
2023-03-21T13:51:36.281Z,8.50
2023-03-21T13:52:39.095Z,7.80
2023-03-21T13:53:45.026Z,7.60
2023-03-21T13:55:16.853Z,7.90
2023-03-21T13:56:22.593Z,7.40
2023-03-21T13:57:30.467Z,7.40
2023-03-21T13:58:51.162Z,7.00
2023-03-21T14:00:21.978Z,7.40
2023-03-21T14:01:30.625Z,7.20
2023-03-21T14:02:34.599Z,6.50
2023-03-21T14:03:39.520Z,5.50
2023-03-21T14:04:54.195Z,5.90
2023-03-21T14:06:09.046Z,5.60
2023-03-21T14:07:20.192Z,5.00
2023-03-21T14:08:36.908Z,4.50
2023-03-21T14:09:48.962Z,4.50
2023-03-21T14:10:59.829Z,4.20
2023-03-21T14:12:07.793Z,4.30
2023-03-21T14:13:19.501Z,4.30
2023-03-21T14:14:26.720Z,4.20
2023-03-21T14:15:40.938Z,5.20
2023-03-21T14:16:46.636Z,5.10
2023-03-21T14:18:27.338Z,4.40
2023-03-21T14:19:38.828Z,5.60
2023-03-21T14:20:42.610Z,5.10
2023-03-21T14:21:53.879Z,5.00
2023-03-21T14:22:56.992Z,5.80
2023-03-21T14:24:03.041Z,5.20
2023-03-21T14:25:12.338Z,4.70
2023-03-21T14:26:15.961Z,5.60
2023-03-21T14:27:19.638Z,4.80
2023-03-21T14:28:32.907Z,5.60
2023-03-21T14:29:36.198Z,5.40
2023-03-21T14:30:41.624Z,5.00
2023-03-21T14:31:47.033Z,4.90
2023-03-21T14:32:50.326Z,4.90
2023-03-21T14:33:58.340Z,4.80
2023-03-21T14:35:01.958Z,4.70
2023-03-21T14:36:11.834Z,4.90
2023-03-21T14:37:47.767Z,6.30
2023-03-21T14:38:56.965Z,6.40
2023-03-21T14:40:02.312Z,5.50
2023-03-21T14:41:06.598Z,5.10
2023-03-21T14:42:15.088Z,4.80
2023-03-21T14:43:20.064Z,5.40
2023-03-21T14:44:38.085Z,5.20
2023-03-21T14:45:57.107Z,5.30
2023-03-21T14:47:18.270Z,5.40
2023-03-21T14:48:28.608Z,5.90
2023-03-21T14:49:34.270Z,5.90
2023-03-21T14:50:51.134Z,5.80
2023-03-21T14:51:56.988Z,6.40
2023-03-21T14:53:00.354Z,6.00
2023-03-21T14:54:03.148Z,5.70
2023-03-21T14:55:15.689Z,5.80
2023-03-21T14:56:25.191Z,5.60
2023-03-21T14:57:31.494Z,5.80
2023-03-21T14:58:39.075Z,6.30
2023-03-21T14:59:42.738Z,5.80
2023-03-21T15:00:50.281Z,5.70
2023-03-21T15:01:54.912Z,6.20
2023-03-21T15:02:59.732Z,5.50
2023-03-21T15:04:06.561Z,6.00
2023-03-21T15:05:17.195Z,6.40
2023-03-21T15:06:20.324Z,6.20
2023-03-21T15:07:34.885Z,5.60
2023-03-21T15:08:39.244Z,6.60
2023-03-21T15:09:54.460Z,5.90
2023-03-21T15:11:07.304Z,7.00
2023-03-21T15:12:14.046Z,6.40